Time;durP1;ratioP1;P1;durP2;ratioP2;P2;SDS_P1;SDS_P2;PMS_P1;PMS_P2;Temp;Humidity;BMP_temperature;BMP_pressure;BME280_temperature;BME280_humidity;BME280_pressure;Samples;Min_cycle;Max_cycle;Signal;HPM_P1;HPM_P2
2022/03/13 00:00:26;;;;;;;4.20;3.80;;;12.00;99.90;;;;;;5070575;28;20454;-62
2022/03/13 00:02:57;;;;;;;5.20;3.93;;;11.70;99.90;;;;;;5064680;28;20443;-62
2022/03/13 00:05:28;;;;;;;4.00;3.60;;;11.40;99.90;;;;;;5066375;28;20491;-62
2022/03/13 00:08:02;;;;;;;5.73;4.40;;;11.20;99.90;;;;;;5067537;28;20464;-63
2022/03/13 00:10:33;;;;;;;6.40;5.27;;;11.00;99.90;;;;;;5064753;28;20447;-59
2022/03/13 00:13:05;;;;;;;5.13;3.63;;;10.80;99.90;;;;;;5065350;28;20448;-61
2022/03/13 00:15:51;;;;;;;4.40;3.70;;;10.70;99.90;;;;;;5059589;28;20528;-62
2022/03/13 00:18:22;;;;;;;4.10;3.40;;;10.60;99.90;;;;;;5071951;28;20745;-62
2022/03/13 00:20:55;;;;;;;6.00;4.67;;;10.50;99.90;;;;;;5065424;28;20456;-60
2022/03/13 00:26:11;;;;;;;7.80;6.30;;;10.40;99.90;;;;;;5063739;28;20468;-60
2022/03/13 00:31:29;;;;;;;5.00;4.43;;;10.40;99.90;;;;;;5068950;28;20531;-64
2022/03/13 00:34:00;;;;;;;5.50;5.00;;;10.40;99.90;;;;;;5076114;28;20447;-61
2022/03/13 00:36:31;;;;;;;7.13;6.13;;;10.40;99.90;;;;;;5074330;28;20488;-61
2022/03/13 00:39:02;;;;;;;8.70;7.33;;;10.40;99.90;;;;;;5066924;28;20526;-60
2022/03/13 00:44:18;;;;;;;7.57;6.87;;;10.40;99.90;;;;;;5071594;28;20462;-61
2022/03/13 00:49:33;;;;;;;4.60;3.97;;;10.40;99.90;;;;;;5064886;28;20445;-61
2022/03/13 00:52:05;;;;;;;4.40;4.00;;;10.40;99.90;;;;;;5065915;28;20433;-61
2022/03/13 00:54:36;;;;;;;5.67;3.33;;;10.40;99.90;;;;;;5069754;28;20444;-61
2022/03/13 00:57:07;;;;;;;5.30;3.70;;;10.40;99.90;;;;;;5073094;28;20456;-61
2022/03/13 00:59:40;;;;;;;4.03;3.60;;;10.30;99.90;;;;;;5064427;28;20571;-61
2022/03/13 01:02:11;;;;;;;5.77;3.83;;;10.30;99.90;;;;;;5064662;28;20463;-62
2022/03/13 01:04:43;;;;;;;5.00;3.50;;;10.30;99.90;;;;;;5065171;28;20648;-62
2022/03/13 01:07:17;;;;;;;5.10;3.63;;;10.30;99.90;;;;;;5072624;28;20476;-61
2022/03/13 01:09:49;;;;;;;6.53;4.80;;;10.30;99.90;;;;;;5067488;28;20452;-61
2022/03/13 01:12:20;;;;;;;4.13;3.70;;;10.30;99.90;;;;;;5063328;28;20505;-62
2022/03/13 01:15:20;;;;;;;5.77;3.90;;;10.30;99.90;;;;;;5054582;28;20477;-61
2022/03/13 01:17:51;;;;;;;4.50;4.10;;;10.30;99.90;;;;;;5062630;28;20470;-62
2022/03/13 01:20:35;;;;;;;5.77;5.13;;;10.40;99.90;;;;;;5073456;28;20455;-62
2022/03/13 01:23:06;;;;;;;5.23;4.10;;;10.40;99.90;;;;;;5064094;28;20449;-62
2022/03/13 01:25:37;;;;;;;6.67;3.87;;;10.40;99.90;;;;;;5073046;28;20543;-62
2022/03/13 01:28:12;;;;;;;3.50;3.20;;;10.40;99.90;;;;;;5069274;28;20444;-62
2022/03/13 01:30:59;;;;;;;5.97;3.87;;;10.40;99.90;;;;;;5056643;28;20440;-61
2022/03/13 01:33:31;;;;;;;3.10;2.80;;;10.40;99.90;;;;;;5062431;28;20456;-61
2022/03/13 01:36:02;;;;;;;5.20;3.23;;;10.40;99.90;;;;;;5065003;28;20484;-63
2022/03/13 01:38:35;;;;;;;3.33;3.03;;;10.40;99.90;;;;;;5062694;28;20513;-61
2022/03/13 01:41:07;;;;;;;3.30;2.93;;;10.40;99.90;;;;;;5062264;28;20440;-61
2022/03/13 01:43:40;;;;;;;3.97;3.20;;;10.50;99.90;;;;;;5062845;28;20441;-61
2022/03/13 01:46:19;;;;;;;8.40;3.60;;;10.50;99.90;;;;;;5063286;28;20456;-61
2022/03/13 01:48:58;;;;;;;4.77;3.53;;;10.50;99.90;;;;;;5066793;28;20458;-62
2022/03/13 01:51:30;;;;;;;3.07;2.77;;;10.60;99.90;;;;;;5062997;28;20690;-61
2022/03/13 01:54:03;;;;;;;3.77;3.37;;;10.60;99.90;;;;;;5051769;28;20458;-62
2022/03/13 01:56:35;;;;;;;5.40;3.80;;;10.70;99.90;;;;;;5062903;28;20473;-61
2022/03/13 01:59:08;;;;;;;2.80;2.60;;;10.60;99.90;;;;;;5062392;28;20512;-62
2022/03/13 02:01:41;;;;;;;5.03;3.07;;;10.60;99.90;;;;;;5063206;28;20444;-62
2022/03/13 02:04:24;;;;;;;4.10;3.50;;;10.60;99.90;;;;;;5062402;28;21009;-62
2022/03/13 02:07:08;;;;;;;4.40;2.90;;;10.70;99.90;;;;;;5062425;28;20515;-61
2022/03/13 02:09:53;;;;;;;3.33;2.43;;;10.60;99.90;;;;;;5066629;28;20512;-62
2022/03/13 02:12:38;;;;;;;3.43;3.10;;;10.60;99.90;;;;;;5061609;28;20498;-63
2022/03/13 02:15:13;;;;;;;3.47;2.83;;;10.60;99.90;;;;;;5061859;28;20482;-62
2022/03/13 02:17:45;;;;;;;3.00;2.80;;;10.60;99.90;;;;;;5060440;28;20442;-61
2022/03/13 02:20:31;;;;;;;3.47;3.17;;;10.60;99.90;;;;;;5062619;28;20447;-61
2022/03/13 02:26:08;;;;;;;4.50;4.00;;;10.50;99.90;;;;;;5061054;28;20454;-61
2022/03/13 02:31:35;;;;;;;91.57;82.70;;;10.40;99.90;;;;;;5060947;28;20453;-59
2022/03/13 02:34:10;;;;;;;36.07;32.87;;;10.40;99.90;;;;;;5073262;28;20561;-65
2022/03/13 02:37:00;;;;;;;15.67;9.50;;;10.40;99.90;;;;;;5062258;28;20483;-63
2022/03/13 02:39:37;;;;;;;40.27;36.47;;;10.50;99.90;;;;;;5062078;28;20449;-60
2022/03/13 02:42:10;;;;;;;57.00;52.03;;;10.40;99.90;;;;;;5060201;28;20455;-64
2022/03/13 02:44:41;;;;;;;13.23;12.23;;;10.40;99.90;;;;;;5063475;28;20448;-64
2022/03/13 02:47:12;;;;;;;4.93;4.53;;;10.40;99.90;;;;;;5061836;28;20840;-62
2022/03/13 02:49:46;;;;;;;2.73;2.53;;;10.50;99.90;;;;;;5073192;28;20453;-62
2022/03/13 02:52:17;;;;;;;2.73;2.30;;;10.50;99.90;;;;;;5059884;28;20809;-62
2022/03/13 02:55:11;;;;;;;3.23;2.40;;;10.50;99.90;;;;;;5063516;28;20502;-61
2022/03/13 02:57:41;;;;;;;3.93;2.70;;;10.50;99.90;;;;;;5059799;28;20476;-62
2022/03/13 03:00:44;;;;;;;4.47;2.40;;;10.40;99.90;;;;;;5061954;28;20432;-63
2022/03/13 03:03:16;;;;;;;4.73;4.20;;;10.40;99.90;;;;;;5061914;28;20476;-63
2022/03/13 03:05:48;;;;;;;3.00;2.60;;;10.40;99.90;;;;;;5061913;28;20444;-61
2022/03/13 03:08:32;;;;;;;7.00;6.60;;;10.50;99.90;;;;;;5048727;28;20861;-59
2022/03/13 03:11:20;;;;;;;4.97;4.57;;;10.50;99.90;;;;;;5047561;28;20945;-59
2022/03/13 03:13:51;;;;;;;6.87;6.37;;;10.50;99.90;;;;;;5055218;28;20552;-60
2022/03/13 03:16:22;;;;;;;3.23;3.03;;;10.50;99.90;;;;;;5040060;28;20502;-60
2022/03/13 03:18:53;;;;;;;3.20;2.90;;;10.50;99.90;;;;;;5057739;28;20457;-59
2022/03/13 03:21:24;;;;;;;2.80;2.60;;;10.60;99.90;;;;;;5049620;28;21776;-60
2022/03/13 03:23:55;;;;;;;3.27;2.97;;;10.50;99.90;;;;;;5059462;28;20452;-60
2022/03/13 03:26:27;;;;;;;3.20;3.00;;;10.50;99.90;;;;;;5059215;28;20464;-60
2022/03/13 03:28:58;;;;;;;3.80;3.50;;;10.50;99.90;;;;;;5070119;28;20471;-62
2022/03/13 03:31:29;;;;;;;4.37;4.07;;;10.60;99.90;;;;;;5061384;28;20479;-63
2022/03/13 03:34:00;;;;;;;3.20;2.80;;;10.60;99.90;;;;;;5061437;28;20469;-62
2022/03/13 03:36:31;;;;;;;4.27;3.03;;;10.60;99.90;;;;;;5061427;28;20495;-61
2022/03/13 03:39:01;;;;;;;4.00;3.13;;;10.60;99.90;;;;;;5061545;28;20453;-61
2022/03/13 03:41:34;;;;;;;3.50;2.50;;;10.70;99.90;;;;;;5060724;28;20458;-62
2022/03/13 03:44:05;;;;;;;3.20;2.90;;;10.70;99.90;;;;;;5059738;28;20916;-61
2022/03/13 03:46:36;;;;;;;3.03;2.20;;;10.70;99.90;;;;;;5062116;28;20462;-60
2022/03/13 03:49:07;;;;;;;1.93;1.83;;;10.70;99.90;;;;;;5064618;28;20472;-63
2022/03/13 03:51:38;;;;;;;2.40;2.20;;;10.70;99.90;;;;;;5059186;28;20444;-62
2022/03/13 03:56:55;;;;;;;2.10;1.90;;;10.70;99.90;;;;;;5060933;28;20480;-62
2022/03/13 03:59:27;;;;;;;2.20;2.03;;;10.80;99.90;;;;;;5060024;28;20547;-62
2022/03/13 04:01:59;;;;;;;2.07;1.87;;;10.80;99.90;;;;;;5060751;28;21256;-62
2022/03/13 04:07:14;;;;;;;1.70;1.60;;;10.80;99.90;;;;;;5060411;28;20450;-62
2022/03/13 04:09:46;;;;;;;1.80;1.70;;;10.70;99.90;;;;;;5061841;28;20436;-62
2022/03/13 04:12:19;;;;;;;2.07;1.43;;;10.60;99.90;;;;;;5059392;28;20563;-63
2022/03/13 04:14:50;;;;;;;1.93;1.37;;;10.50;99.90;;;;;;5055706;28;20460;-62
2022/03/13 04:17:21;;;;;;;4.03;1.70;;;10.40;99.90;;;;;;5060392;28;20511;-63
2022/03/13 04:20:13;;;;;;;2.30;1.50;;;10.40;99.90;;;;;;5062349;28;20547;-63
2022/03/13 04:22:44;;;;;;;1.97;1.77;;;10.30;99.90;;;;;;5059698;28;20455;-66
2022/03/13 04:28:04;;;;;;;1.73;1.40;;;10.10;99.90;;;;;;5059873;28;21020;-62
2022/03/13 04:30:37;;;;;;;1.57;1.47;;;10.00;99.90;;;;;;5060230;28;20472;-62
2022/03/13 04:33:08;;;;;;;1.30;1.20;;;10.00;99.90;;;;;;5060872;28;20464;-61
2022/03/13 04:35:39;;;;;;;1.60;1.50;;;10.00;99.90;;;;;;5059052;28;20471;-64
2022/03/13 04:38:11;;;;;;;2.20;1.50;;;9.90;99.90;;;;;;5062498;28;20226;-60
2022/03/13 04:40:43;;;;;;;1.50;1.27;;;9.90;99.90;;;;;;5063436;28;20447;-61
2022/03/13 04:43:15;;;;;;;1.63;1.27;;;9.90;99.90;;;;;;5064417;28;20454;-61
2022/03/13 04:45:46;;;;;;;1.73;1.30;;;9.90;99.90;;;;;;5063271;28;20527;-61
2022/03/13 04:48:26;;;;;;;1.25;1.15;;;9.90;99.90;;;;;;5063161;28;20449;-61
2022/03/13 04:50:57;;;;;;;1.10;1.05;;;9.80;99.90;;;;;;5058688;28;20194;-64
2022/03/13 04:53:28;;;;;;;2.53;0.95;;;9.80;99.90;;;;;;5063957;28;20213;-62
2022/03/13 04:58:48;;;;;;;1.03;0.80;;;9.70;99.90;;;;;;5063087;28;20286;-62
2022/03/13 05:01:20;;;;;;;0.90;0.88;;;9.70;99.90;;;;;;5063245;28;20459;-62
2022/03/13 05:03:53;;;;;;;1.40;1.30;;;9.60;99.90;;;;;;5070610;28;20213;-62
2022/03/13 05:06:45;;;;;;;1.17;0.83;;;9.70;99.90;;;;;;5050161;28;20202;-63
2022/03/13 05:09:15;;;;;;;0.97;0.87;;;9.60;99.90;;;;;;5052381;28;20452;-62
2022/03/13 05:11:46;;;;;;;1.05;0.90;;;9.60;99.90;;;;;;5060659;28;20535;-62
2022/03/13 05:14:22;;;;;;;0.70;0.70;;;9.60;99.90;;;;;;5049192;28;20197;-62
2022/03/13 05:16:52;;;;;;;1.10;0.77;;;9.60;99.90;;;;;;5062625;28;20230;-63
2022/03/13 05:19:25;;;;;;;1.23;0.60;;;9.60;99.90;;;;;;5051950;28;20210;-63
2022/03/13 05:21:56;;;;;;;1.03;0.87;;;9.60;99.90;;;;;;5063764;28;20453;-63
2022/03/13 05:24:26;;;;;;;1.53;0.87;;;9.60;99.90;;;;;;5062503;28;20460;-63
2022/03/13 05:26:57;;;;;;;0.70;0.70;;;9.70;99.90;;;;;;5062386;28;20460;-64
2022/03/13 05:29:30;;;;;;;0.67;0.50;;;9.70;99.90;;;;;;5066934;28;20444;-63
2022/03/13 05:32:01;;;;;;;1.08;0.60;;;9.60;99.90;;;;;;5057479;28;20506;-64
2022/03/13 05:34:46;;;;;;;0.70;0.60;;;9.70;99.90;;;;;;5062667;28;20293;-63
2022/03/13 05:37:26;;;;;;;0.40;0.40;;;9.70;99.90;;;;;;5053862;28;20496;-63
2022/03/13 05:42:43;;;;;;;0.50;0.37;;;9.60;99.90;;;;;;5061955;28;20448;-63
2022/03/13 05:45:16;;;;;;;1.35;0.77;;;9.60;99.90;;;;;;5054404;28;20454;-62
2022/03/13 05:47:49;;;;;;;0.75;0.70;;;9.60;99.90;;;;;;5053380;28;20288;-64
2022/03/13 05:50:20;;;;;;;1.17;0.60;;;9.60;99.90;;;;;;5060559;28;20550;-63
2022/03/13 05:52:53;;;;;;;0.80;0.63;;;9.60;99.90;;;;;;5051327;28;20786;-64
2022/03/13 05:55:25;;;;;;;0.73;0.73;;;9.60;99.90;;;;;;5065262;28;20465;-65
2022/03/13 05:57:57;;;;;;;0.90;0.70;;;9.50;99.90;;;;;;5055265;28;20498;-64
2022/03/13 06:00:39;;;;;;;0.70;0.70;;;9.60;99.90;;;;;;5063814;28;20249;-64
2022/03/13 06:06:09;;;;;;;0.60;0.40;;;9.50;99.90;;;;;;5065479;28;20464;-64
2022/03/13 06:08:39;;;;;;;1.02;0.50;;;9.50;99.90;;;;;;5062856;28;20558;-65
2022/03/13 06:11:12;;;;;;;1.40;0.60;;;9.50;99.90;;;;;;5062943;28;20634;-64
2022/03/13 06:13:44;;;;;;;0.70;0.53;;;9.40;99.90;;;;;;5059992;28;20444;-64
2022/03/13 06:16:21;;;;;;;0.60;0.50;;;9.30;99.90;;;;;;5062499;28;20575;-65
2022/03/13 06:18:52;;;;;;;0.65;0.57;;;9.30;99.90;;;;;;5062348;28;20658;-65
2022/03/13 06:21:25;;;;;;;0.60;0.38;;;9.20;99.90;;;;;;5063105;28;20273;-65
2022/03/13 06:26:42;;;;;;;0.50;0.30;;;9.10;99.90;;;;;;5061329;28;20201;-66
2022/03/13 06:29:14;;;;;;;0.80;0.50;;;9.00;99.90;;;;;;5050965;28;20281;-66
2022/03/13 06:31:52;;;;;;;0.43;0.40;;;9.00;99.90;;;;;;5068742;28;20221;-65
2022/03/13 06:34:27;;;;;;;0.40;0.40;;;8.90;99.90;;;;;;5062867;28;20277;-65
2022/03/13 06:36:58;;;;;;;1.65;0.50;;;8.90;99.90;;;;;;5062463;28;20217;-65
2022/03/13 06:39:29;;;;;;;0.63;0.50;;;8.80;99.90;;;;;;5062789;28;20226;-65
2022/03/13 06:42:03;;;;;;;1.70;0.60;;;8.80;99.90;;;;;;5061261;28;20198;-66
2022/03/13 06:44:34;;;;;;;0.60;0.40;;;8.90;99.90;;;;;;5062576;28;20209;-65
2022/03/13 06:47:08;;;;;;;2.28;0.90;;;8.90;99.90;;;;;;5065797;28;20205;-65
2022/03/13 06:52:28;;;;;;;0.90;0.90;;;9.00;99.90;;;;;;5061880;28;20212;-67
2022/03/13 06:55:14;;;;;;;1.60;0.70;;;9.00;99.90;;;;;;5061343;28;20271;-65
2022/03/13 06:57:45;;;;;;;0.50;0.40;;;9.00;99.90;;;;;;5061333;28;20205;-65
2022/03/13 07:00:18;;;;;;;0.60;0.60;;;9.00;99.90;;;;;;5052931;28;20820;-66
2022/03/13 07:02:52;;;;;;;1.05;0.70;;;9.00;99.90;;;;;;5063716;28;20632;-66
2022/03/13 07:05:44;;;;;;;1.40;0.60;;;8.90;99.90;;;;;;5053649;28;20225;-65
2022/03/13 07:08:20;;;;;;;1.00;0.80;;;8.90;99.90;;;;;;5061733;28;20315;-66
2022/03/13 07:10:54;;;;;;;0.80;0.60;;;8.80;99.90;;;;;;5061964;28;20198;-66
2022/03/13 07:13:25;;;;;;;1.10;0.57;;;8.80;99.90;;;;;;5060374;28;20198;-66
2022/03/13 07:16:10;;;;;;;0.73;0.73;;;8.70;99.90;;;;;;5062537;28;20642;-65
2022/03/13 07:21:30;;;;;;;1.30;1.10;;;8.70;99.90;;;;;;5061612;28;20229;-66
2022/03/13 07:24:01;;;;;;;1.02;0.52;;;8.70;99.90;;;;;;5068069;28;20553;-64
2022/03/13 07:26:32;;;;;;;0.65;0.65;;;8.60;99.90;;;;;;5064040;28;20206;-64
2022/03/13 07:29:07;;;;;;;0.70;0.70;;;8.50;99.90;;;;;;5056936;28;20261;-64
2022/03/13 07:31:38;;;;;;;1.98;0.80;;;8.40;99.90;;;;;;5060591;28;20204;-65
2022/03/13 07:34:11;;;;;;;1.83;0.80;;;8.40;99.90;;;;;;5061650;28;20209;-64
2022/03/13 07:36:42;;;;;;;1.70;0.98;;;8.30;99.90;;;;;;5070494;28;20201;-64
2022/03/13 07:39:14;;;;;;;1.58;0.60;;;8.30;99.90;;;;;;5065649;28;20334;-64
2022/03/13 07:41:44;;;;;;;2.42;1.50;;;8.20;99.90;;;;;;5061270;28;20222;-64
2022/03/13 07:44:15;;;;;;;2.33;1.20;;;8.20;99.90;;;;;;5060405;28;20206;-64
2022/03/13 07:46:46;;;;;;;1.15;1.02;;;8.10;99.90;;;;;;5061210;28;20212;-64
2022/03/13 07:49:19;;;;;;;0.82;0.77;;;8.10;99.90;;;;;;5061722;28;20201;-64
2022/03/13 07:51:49;;;;;;;5.13;1.45;;;8.10;99.90;;;;;;5061043;28;20202;-65
2022/03/13 07:54:33;;;;;;;2.10;0.90;;;8.10;99.90;;;;;;5063080;28;20228;-65
2022/03/13 07:57:05;;;;;;;1.27;0.65;;;8.00;99.90;;;;;;5064517;28;20285;-64
2022/03/13 07:59:37;;;;;;;1.35;0.63;;;8.00;99.90;;;;;;5060708;28;20248;-65
2022/03/13 08:02:08;;;;;;;3.13;1.00;;;8.00;99.90;;;;;;5060878;28;20232;-65
2022/03/13 08:04:41;;;;;;;3.17;1.55;;;8.00;99.90;;;;;;5070800;28;20626;-65
2022/03/13 08:09:58;;;;;;;3.70;1.35;;;8.00;99.90;;;;;;5052986;28;20210;-65
2022/03/13 08:12:28;;;;;;;0.80;0.70;;;8.00;99.90;;;;;;5064729;28;20283;-65
2022/03/13 08:14:59;;;;;;;1.75;1.38;;;8.10;99.90;;;;;;5066128;28;20240;-65
2022/03/13 08:20:17;;;;;;;2.08;1.20;;;8.00;99.90;;;;;;5062417;28;20233;-65
2022/03/13 08:22:48;;;;;;;2.47;1.00;;;8.00;99.90;;;;;;5065480;28;20193;-65
2022/03/13 08:25:19;;;;;;;2.05;1.13;;;8.00;99.90;;;;;;5064495;28;20293;-65
2022/03/13 08:28:04;;;;;;;4.07;1.13;;;8.00;99.90;;;;;;5066191;28;20201;-65
2022/03/13 08:30:36;;;;;;;4.85;1.30;;;8.00;99.90;;;;;;5065079;28;20265;-65
2022/03/13 08:33:11;;;;;;;1.40;1.05;;;8.00;99.90;;;;;;5064809;28;20212;-66
2022/03/13 08:36:10;;;;;;;3.08;1.13;;;8.10;99.90;;;;;;5068871;28;20193;-65
2022/03/13 08:38:43;;;;;;;1.25;1.15;;;8.00;99.90;;;;;;5065724;28;20202;-65
2022/03/13 08:44:13;;;;;;;2.05;1.45;;;8.00;99.90;;;;;;5066296;28;20241;-65
2022/03/13 08:46:44;;;;;;;3.20;1.45;;;8.00;99.90;;;;;;5069720;28;20219;-66
2022/03/13 08:52:00;;;;;;;3.33;1.45;;;8.10;99.90;;;;;;5067358;28;20219;-66
2022/03/13 08:54:32;;;;;;;2.10;1.35;;;8.10;99.90;;;;;;5070526;28;20232;-65
2022/03/13 08:57:03;;;;;;;2.70;1.60;;;8.10;99.90;;;;;;5064858;28;20268;-65
2022/03/13 08:59:37;;;;;;;3.42;1.23;;;8.00;99.90;;;;;;5066257;28;20273;-66
2022/03/13 09:02:09;;;;;;;4.10;1.10;;;8.00;99.90;;;;;;5067223;28;20216;-65
2022/03/13 09:04:41;;;;;;;1.23;1.08;;;8.00;99.90;;;;;;5066011;28;20202;-65
2022/03/13 09:07:12;;;;;;;1.63;1.20;;;8.10;99.90;;;;;;5068449;28;20261;-65
2022/03/13 09:09:45;;;;;;;3.35;1.50;;;8.00;99.90;;;;;;5078301;28;20211;-65
2022/03/13 09:12:17;;;;;;;2.25;1.40;;;8.00;99.90;;;;;;5076601;28;20213;-65
2022/03/13 09:14:48;;;;;;;2.88;1.38;;;8.00;99.90;;;;;;5068699;28;20193;-66
2022/03/13 09:17:19;;;;;;;1.98;0.80;;;8.00;99.90;;;;;;5071054;28;20237;-65
2022/03/13 09:19:50;;;;;;;1.45;1.00;;;8.10;99.90;;;;;;5058272;28;20226;-66
2022/03/13 09:22:22;;;;;;;1.60;0.93;;;8.10;99.90;;;;;;5058110;28;20587;-66
2022/03/13 09:24:57;;;;;;;1.98;1.30;;;8.20;99.90;;;;;;5081902;28;20645;-66
2022/03/13 09:27:29;;;;;;;2.67;1.30;;;8.20;99.90;;;;;;5067385;28;20973;-66
2022/03/13 09:30:15;;;;;;;5.20;1.50;;;8.20;99.90;;;;;;5057541;28;20413;-65
2022/03/13 09:32:46;;;;;;;3.15;1.60;;;8.30;99.90;;;;;;5066686;28;20276;-65
2022/03/13 09:35:17;;;;;;;2.15;1.40;;;8.30;99.90;;;;;;5065882;28;20209;-65
2022/03/13 09:40:44;;;;;;;3.25;1.25;;;8.30;99.90;;;;;;5060965;28;20239;-65
2022/03/13 09:43:15;;;;;;;6.22;1.80;;;8.30;99.90;;;;;;5067631;28;20263;-65
2022/03/13 09:45:47;;;;;;;3.30;1.73;;;8.30;99.90;;;;;;5069582;28;20218;-65
2022/03/13 09:51:07;;;;;;;3.13;1.60;;;8.20;99.90;;;;;;5063232;28;20198;-65
2022/03/13 09:53:38;;;;;;;4.80;1.23;;;8.10;99.90;;;;;;5056687;28;20205;-64
2022/03/13 09:56:11;;;;;;;5.07;2.08;;;8.10;99.90;;;;;;5072306;28;20225;-64
2022/03/13 09:58:55;;;;;;;7.30;1.35;;;8.00;99.90;;;;;;5063495;28;20205;-64
2022/03/13 10:01:26;;;;;;;3.65;1.25;;;8.00;99.90;;;;;;5064178;28;20580;-64
2022/03/13 10:03:58;;;;;;;4.85;1.15;;;8.00;99.90;;;;;;5065027;28;20261;-63
2022/03/13 10:06:30;;;;;;;3.08;1.23;;;8.00;99.90;;;;;;5063647;28;20194;-64
2022/03/13 10:09:09;;;;;;;3.88;1.60;;;7.80;99.90;;;;;;5078583;28;20205;-63
2022/03/13 10:11:49;;;;;;;2.80;1.33;;;7.80;99.90;;;;;;5065071;28;20220;-64
2022/03/13 10:14:20;;;;;;;6.28;1.55;;;7.80;99.90;;;;;;5062719;28;20205;-63
2022/03/13 10:16:51;;;;;;;3.55;1.30;;;7.70;99.90;;;;;;5066698;28;20221;-63
2022/03/13 10:19:22;;;;;;;1.92;1.10;;;7.70;99.90;;;;;;5062774;28;20205;-63
2022/03/13 10:22:03;;;;;;;5.20;1.35;;;7.60;99.90;;;;;;5063875;28;20202;-63
2022/03/13 10:24:41;;;;;;;3.13;1.35;;;7.60;99.90;;;;;;5060428;28;20193;-63
2022/03/13 10:27:18;;;;;;;2.90;1.20;;;7.50;99.90;;;;;;5046792;28;20201;-64
2022/03/13 10:29:49;;;;;;;1.83;1.02;;;7.50;99.90;;;;;;5052011;28;20206;-64
2022/03/13 10:32:22;;;;;;;2.40;1.35;;;7.50;99.90;;;;;;5071585;28;20224;-64
2022/03/13 10:34:57;;;;;;;4.65;1.45;;;7.40;99.90;;;;;;5063931;28;20198;-63
2022/03/13 10:37:38;;;;;;;3.70;2.38;;;7.50;99.90;;;;;;5059883;28;20220;-62
2022/03/13 10:40:24;;;;;;;6.10;1.55;;;7.50;99.90;;;;;;5050297;28;20240;-62
2022/03/13 10:43:26;;;;;;;1.58;1.48;;;7.50;99.90;;;;;;5061171;28;20288;-62
2022/03/13 10:45:58;;;;;;;2.85;1.35;;;7.40;99.90;;;;;;5056771;28;20206;-63
2022/03/13 10:48:33;;;;;;;1.73;1.30;;;7.40;99.90;;;;;;5067095;28;20202;-62
2022/03/13 10:51:08;;;;;;;4.55;1.40;;;7.30;99.90;;;;;;5074524;28;20307;-63
2022/03/13 10:53:41;;;;;;;1.40;1.30;;;7.30;99.90;;;;;;5071396;28;20213;-63
2022/03/13 10:56:25;;;;;;;3.92;1.88;;;7.30;99.90;;;;;;5071951;28;20257;-62
2022/03/13 10:59:17;;;;;;;3.72;1.83;;;7.30;99.90;;;;;;5061748;28;20202;-62
2022/03/13 11:04:57;;;;;;;1.55;1.30;;;7.20;99.90;;;;;;5063145;28;20265;-62
2022/03/13 11:07:29;;;;;;;2.88;1.27;;;7.20;99.90;;;;;;5074380;28;20197;-62
2022/03/13 11:12:51;;;;;;;2.42;1.23;;;7.20;99.90;;;;;;5060669;28;20573;-62
2022/03/13 11:15:27;;;;;;;1.52;1.40;;;7.10;99.90;;;;;;5076155;28;20229;-62
2022/03/13 11:17:59;;;;;;;1.77;1.20;;;7.10;99.90;;;;;;5077273;28;20197;-62
2022/03/13 11:20:31;;;;;;;2.42;0.93;;;7.10;99.90;;;;;;5066119;28;20222;-63
2022/03/13 11:23:02;;;;;;;3.47;1.00;;;7.10;99.90;;;;;;5062546;28;20198;-62
2022/03/13 11:25:34;;;;;;;2.28;1.00;;;7.00;99.90;;;;;;5069882;28;20613;-62
2022/03/13 11:28:05;;;;;;;4.38;1.30;;;7.10;99.90;;;;;;5076317;28;20201;-62
2022/03/13 11:30:37;;;;;;;5.03;1.15;;;7.10;99.90;;;;;;5069282;28;20228;-62
2022/03/13 11:33:08;;;;;;;2.85;1.33;;;7.10;99.90;;;;;;5061208;28;20206;-62
2022/03/13 11:35:40;;;;;;;2.78;0.90;;;7.00;99.90;;;;;;5061752;28;20861;-62
2022/03/13 11:38:20;;;;;;;2.47;1.70;;;7.00;99.90;;;;;;5072874;28;20213;-62
2022/03/13 11:40:52;;;;;;;1.55;1.20;;;7.00;99.90;;;;;;5062166;28;20210;-62
2022/03/13 11:43:38;;;;;;;1.10;1.00;;;6.90;99.90;;;;;;5061112;28;20205;-62
2022/03/13 11:46:12;;;;;;;1.98;1.02;;;6.90;99.90;;;;;;5072614;28;20202;-62
2022/03/13 11:48:43;;;;;;;3.38;1.40;;;6.90;99.90;;;;;;5071536;28;20208;-62
2022/03/13 11:51:31;;;;;;;2.67;0.82;;;6.90;99.90;;;;;;5065553;28;20206;-62
2022/03/13 11:54:04;;;;;;;5.13;2.45;;;6.90;99.90;;;;;;5077076;28;20236;-62
2022/03/13 11:56:47;;;;;;;1.00;0.70;;;6.90;99.90;;;;;;5072595;28;20194;-62
2022/03/13 11:59:32;;;;;;;2.00;0.68;;;6.90;99.90;;;;;;5069264;28;20265;-62
2022/03/13 12:02:11;;;;;;;1.70;0.90;;;6.80;99.90;;;;;;5065773;28;20551;-62
2022/03/13 12:04:42;;;;;;;1.15;0.68;;;6.80;99.90;;;;;;5067181;28;20201;-62
2022/03/13 12:07:28;;;;;;;0.88;0.70;;;6.80;99.90;;;;;;5072891;28;20268;-62
2022/03/13 12:09:59;;;;;;;1.02;0.70;;;6.70;99.90;;;;;;5074741;28;20602;-62
2022/03/13 12:12:30;;;;;;;1.90;0.68;;;6.70;99.90;;;;;;5063543;28;20202;-62
2022/03/13 12:15:04;;;;;;;1.58;0.77;;;6.70;99.90;;;;;;5066536;28;20238;-62
2022/03/13 12:17:48;;;;;;;3.00;1.15;;;6.70;99.90;;;;;;5062086;28;20200;-62
2022/03/13 12:20:26;;;;;;;2.28;0.50;;;6.80;99.90;;;;;;5051679;28;20660;-62
2022/03/13 12:22:59;;;;;;;1.23;0.70;;;6.70;99.90;;;;;;5064423;28;20206;-62
2022/03/13 12:25:31;;;;;;;1.20;0.70;;;6.70;99.90;;;;;;5069627;28;20209;-62
2022/03/13 12:30:47;;;;;;;0.65;0.65;;;6.60;99.90;;;;;;5067079;28;20209;-62
2022/03/13 12:33:20;;;;;;;0.88;0.50;;;6.60;99.90;;;;;;5072346;28;20211;-63
2022/03/13 12:36:04;;;;;;;0.38;0.30;;;6.60;99.90;;;;;;5078329;28;20201;-62
2022/03/13 12:38:36;;;;;;;4.57;0.90;;;6.60;99.90;;;;;;5066280;28;20198;-62
2022/03/13 12:41:12;;;;;;;0.80;0.55;;;6.60;99.90;;;;;;5075309;28;20233;-62
2022/03/13 12:43:52;;;;;;;0.43;0.43;;;6.60;99.90;;;;;;5071438;28;20201;-62
2022/03/13 12:46:24;;;;;;;1.23;0.70;;;6.60;99.90;;;;;;5078738;28;20228;-62
2022/03/13 12:48:59;;;;;;;0.52;0.50;;;6.60;99.90;;;;;;5065199;28;20300;-62
2022/03/13 12:51:40;;;;;;;1.20;0.47;;;6.60;99.90;;;;;;5065541;28;20306;-63
2022/03/13 12:54:12;;;;;;;1.40;0.75;;;6.60;99.90;;;;;;5068282;28;20198;-62
2022/03/13 12:56:48;;;;;;;0.88;0.52;;;6.60;99.90;;;;;;5071333;28;20646;-62
2022/03/13 12:59:27;;;;;;;0.82;0.60;;;6.60;99.90;;;;;;5066641;28;20211;-62
2022/03/13 13:02:05;;;;;;;1.95;0.60;;;6.60;99.90;;;;;;5068666;28;20231;-62
2022/03/13 13:04:39;;;;;;;1.05;0.50;;;6.60;99.90;;;;;;5048464;28;20237;-62
2022/03/13 13:07:11;;;;;;;1.73;0.50;;;6.60;99.90;;;;;;5067263;28;20213;-62
2022/03/13 13:09:43;;;;;;;3.08;0.88;;;6.60;99.90;;;;;;5074045;28;20288;-62
2022/03/13 13:12:18;;;;;;;1.15;0.80;;;6.60;99.90;;;;;;5064579;28;20262;-62
2022/03/13 13:14:50;;;;;;;3.42;0.60;;;6.60;99.90;;;;;;5064096;28;20550;-62
2022/03/13 13:17:35;;;;;;;2.17;1.08;;;6.60;99.90;;;;;;5067401;28;20644;-62
2022/03/13 13:23:12;;;;;;;2.17;0.70;;;6.60;99.90;;;;;;5060071;28;20221;-62
2022/03/13 13:25:43;;;;;;;0.70;0.70;;;6.70;99.90;;;;;;5064212;28;20261;-62
2022/03/13 13:28:14;;;;;;;1.80;1.05;;;6.70;99.90;;;;;;5064016;28;20202;-63
2022/03/13 13:30:45;;;;;;;0.55;0.55;;;6.70;99.90;;;;;;5070338;28;20214;-62
2022/03/13 13:33:17;;;;;;;1.20;0.73;;;6.70;99.90;;;;;;5068892;28;20208;-61
2022/03/13 13:35:58;;;;;;;1.20;1.10;;;6.70;99.90;;;;;;5068340;28;20231;-62
2022/03/13 13:38:42;;;;;;;0.65;0.65;;;6.80;99.90;;;;;;5048942;28;20200;-62
2022/03/13 13:41:13;;;;;;;2.47;0.70;;;6.80;99.90;;;;;;5073026;28;20210;-62
2022/03/13 13:43:45;;;;;;;0.98;0.60;;;6.80;99.90;;;;;;5069189;28;20221;-62
2022/03/13 13:46:17;;;;;;;0.80;0.80;;;6.80;99.90;;;;;;5066888;28;20200;-62
2022/03/13 13:49:01;;;;;;;0.57;0.45;;;6.80;99.90;;;;;;5059409;28;20194;-61
2022/03/13 13:51:37;;;;;;;1.00;1.00;;;6.70;99.90;;;;;;5064410;28;20245;-61
2022/03/13 13:54:20;;;;;;;1.15;0.40;;;6.70;99.90;;;;;;5065702;28;20214;-62
2022/03/13 13:56:53;;;;;;;2.15;0.60;;;6.70;99.90;;;;;;5062957;28;21590;-60
2022/03/13 13:59:26;;;;;;;0.55;0.50;;;6.60;99.90;;;;;;5063830;28;20536;-61
2022/03/13 14:02:16;;;;;;;0.30;0.30;;;6.60;99.90;;;;;;5065153;28;20248;-61
2022/03/13 14:04:49;;;;;;;1.02;0.43;;;6.60;99.90;;;;;;5063204;28;20229;-60
2022/03/13 14:07:36;;;;;;;0.95;0.25;;;6.60;99.90;;;;;;5070610;28;20258;-61
2022/03/13 14:10:11;;;;;;;0.30;0.30;;;6.60;99.90;;;;;;5063639;28;20201;-61
2022/03/13 14:12:47;;;;;;;1.08;0.73;;;6.60;99.90;;;;;;5062036;28;20644;-61
2022/03/13 14:15:18;;;;;;;2.05;0.77;;;6.60;99.90;;;;;;5055638;28;20248;-60
2022/03/13 14:20:33;;;;;;;0.73;0.73;;;6.50;99.90;;;;;;5062181;28;20193;-61
2022/03/13 14:23:06;;;;;;;0.70;0.30;;;6.50;99.90;;;;;;5061784;28;20220;-61
2022/03/13 14:25:37;;;;;;;1.58;0.47;;;6.50;99.90;;;;;;5060701;28;20255;-62
2022/03/13 14:30:52;;;;;;;0.30;0.30;;;6.50;99.90;;;;;;5061687;28;20201;-61
2022/03/13 14:33:23;;;;;;;0.30;0.30;;;6.50;99.90;;;;;;5062065;28;20210;-62
2022/03/13 14:35:54;;;;;;;0.30;0.30;;;6.60;99.90;;;;;;5055891;28;20535;-62
2022/03/13 14:38:26;;;;;;;1.10;1.10;;;6.60;99.90;;;;;;5061207;28;20544;-61
2022/03/13 14:40:57;;;;;;;0.52;0.43;;;6.60;99.90;;;;;;5061020;28;20198;-62
2022/03/13 14:43:28;;;;;;;0.32;0.32;;;6.60;99.90;;;;;;5066928;28;20226;-61
2022/03/13 14:45:59;;;;;;;0.55;0.30;;;6.60;99.90;;;;;;5061684;28;20293;-62